PWSweather.com
Personal Weather Stations
Station Observations
KMIEASTT1
Tawas Bay, East Tawas, MI 48730

Tawas BayEast Tawas, MI 48730

Lat: 44.28, Lon: -83.48

Elevation: 600

Station Type: Davis VantagePro

http://www.tawasbayweather.com

Latest ConditionsUpdated 4:15:10 PM EDT Monday, Jul 28, 2014
Currently Today's Max Today's Min Today's Average
Temperature 62.0°F16.7°C 62.3°F16.8°C 56.8°F13.8°C 59.5°F15.3°C
Dew Point 50.1°F10.1°C 61.0°F16.1°C 50.1°F10.1°C 55.1°F12.8°C
Winds 2.0 mph NW3.2 kmh NW 7.0 mph N11.3 kmh N - 1.6 mph 2.6 kmh
Wind Gusts 8.0 mph12.9 kmh 9.0 mph14.5 kmh - -
Humidity 65% 98% 65% 86%
Pressure 29.97 in1014.9 mb 29.98 in1015.2 mb 29.73 in1006.8 mb -
Hour Temp Dew Point Humidity Winds Wind Gusts Pressure Precip Precip Rate Daily Precip Total
04:15 PM 62.0°F16.7°C 50.1°F10.1°C 65% 2.0 mph NW3.2 kmh NW 8.0 mph12.9 kmh 29.97 in1014.9 mb 0.00 in0.0 mm 0.00 in/hr0.0 mm/hr 0.43 in10.9 mm
04:00 PM 61.8°F16.6°C 51.5°F10.8°C 69% 1.0 mph NW1.6 kmh NW 8.0 mph12.9 kmh 29.97 in1014.9 mb 0.00 in0.0 mm 0.00 in/hr0.0 mm/hr 0.43 in10.9 mm
03:45 PM 61.4°F16.3°C 51.2°F10.7°C 69% Calm Calm 8.0 mph12.9 kmh 29.98 in1015.2 mb 0.00 in0.0 mm 0.00 in/hr0.0 mm/hr 0.43 in10.9 mm
03:30 PM 61.3°F16.3°C 51.1°F10.6°C 69% Calm Calm 5.0 mph8.0 kmh 29.97 in1014.9 mb 0.00 in0.0 mm 0.00 in/hr0.0 mm/hr 0.43 in10.9 mm
03:15 PM 60.7°F15.9°C 50.9°F10.5°C 70% 3.0 mph NW4.8 kmh NW 7.0 mph11.3 kmh 29.97 in1014.9 mb 0.00 in0.0 mm 0.00 in/hr0.0 mm/hr 0.43 in10.9 mm
03:00 PM 60.2°F15.7°C 50.8°F10.4°C 71% 3.0 mph NW4.8 kmh NW 5.0 mph8.0 kmh 29.97 in1014.9 mb 0.00 in0.0 mm 0.00 in/hr0.0 mm/hr 0.43 in10.9 mm
02:45 PM 60.3°F15.7°C 51.3°F10.7°C 72% Calm Calm 5.0 mph8.0 kmh 29.97 in1014.9 mb 0.00 in0.0 mm 0.00 in/hr0.0 mm/hr 0.43 in10.9 mm
02:30 PM 59.3°F15.2°C 51.0°F10.6°C 74% Calm Calm 5.0 mph8.0 kmh 29.97 in1014.9 mb 0.00 in0.0 mm 0.00 in/hr0.0 mm/hr 0.43 in10.9 mm
02:15 PM 60.0°F15.6°C 51.7°F10.9°C 74% 2.0 mph NW3.2 kmh NW 9.0 mph14.5 kmh 29.96 in1014.6 mb 0.00 in0.0 mm 0.00 in/hr0.0 mm/hr 0.43 in10.9 mm
02:00 PM 59.9°F15.5°C 52.3°F11.3°C 76% 2.0 mph NW3.2 kmh NW 7.0 mph11.3 kmh 29.96 in1014.6 mb 0.00 in0.0 mm 0.00 in/hr0.0 mm/hr 0.43 in10.9 mm
01:45 PM 58.5°F14.7°C 51.3°F10.7°C 77% 1.0 mph NW1.6 kmh NW 5.0 mph8.0 kmh 29.96 in1014.6 mb 0.00 in0.0 mm 0.00 in/hr0.0 mm/hr 0.43 in10.9 mm
01:30 PM 59.5°F15.3°C 51.9°F11.1°C 76% 3.0 mph NW4.8 kmh NW 6.0 mph9.7 kmh 29.96 in1014.6 mb 0.00 in0.0 mm 0.00 in/hr0.0 mm/hr 0.43 in10.9 mm
01:15 PM 59.5°F15.3°C 51.9°F11.1°C 76% 2.0 mph NW3.2 kmh NW 6.0 mph9.7 kmh 29.95 in1014.2 mb 0.00 in0.0 mm 0.00 in/hr0.0 mm/hr 0.43 in10.9 mm
01:00 PM 59.4°F15.2°C 51.8°F11.0°C 76% 1.0 mph NNE1.6 kmh NNE 5.0 mph8.0 kmh 29.96 in1014.6 mb 0.00 in0.0 mm 0.00 in/hr0.0 mm/hr 0.43 in10.9 mm
12:45 PM 60.5°F15.8°C 52.2°F11.2°C 74% 7.0 mph N11.3 kmh N 8.0 mph12.9 kmh 29.95 in1014.2 mb 0.00 in0.0 mm 0.00 in/hr0.0 mm/hr 0.43 in10.9 mm
12:30 PM 60.5°F15.8°C 52.9°F11.6°C 76% Calm Calm 6.0 mph9.7 kmh 29.94 in1013.9 mb 0.00 in0.0 mm 0.00 in/hr0.0 mm/hr 0.43 in10.9 mm
12:15 PM 61.3°F16.3°C 54.0°F12.2°C 77% 3.0 mph N4.8 kmh N 5.0 mph8.0 kmh 29.94 in1013.9 mb 0.00 in0.0 mm 0.00 in/hr0.0 mm/hr 0.43 in10.9 mm
12:00 PM 60.5°F15.8°C 54.3°F12.4°C 80% 1.0 mph NNE1.6 kmh NNE 5.0 mph8.0 kmh 29.94 in1013.9 mb 0.00 in0.0 mm 0.00 in/hr0.0 mm/hr 0.43 in10.9 mm
11:45 AM 60.9°F16.1°C 53.3°F11.8°C 76% Calm Calm 9.0 mph14.5 kmh 29.93 in1013.5 mb 0.00 in0.0 mm 0.00 in/hr0.0 mm/hr 0.43 in10.9 mm
11:30 AM 62.3°F16.8°C 55.7°F13.2°C 79% 5.0 mph NNW8.0 kmh NNW 7.0 mph11.3 kmh 29.92 in1013.2 mb 0.00 in0.0 mm 0.00 in/hr0.0 mm/hr 0.43 in10.9 mm
11:15 AM 62.1°F16.7°C 55.5°F13.1°C 79% 5.0 mph N8.0 kmh N 9.0 mph14.5 kmh 29.92 in1013.2 mb 0.00 in0.0 mm 0.00 in/hr0.0 mm/hr 0.43 in10.9 mm
11:00 AM 61.1°F16.2°C 55.2°F12.9°C 81% 6.0 mph NNW9.7 kmh NNW 8.0 mph12.9 kmh 29.92 in1013.2 mb 0.00 in0.0 mm 0.00 in/hr0.0 mm/hr 0.43 in10.9 mm
10:45 AM 61.5°F16.4°C 55.3°F12.9°C 80% 5.0 mph NE8.0 kmh NE 8.0 mph12.9 kmh 29.91 in1012.9 mb 0.00 in0.0 mm 0.00 in/hr0.0 mm/hr 0.43 in10.9 mm
10:30 AM 59.9°F15.5°C 54.7°F12.6°C 83% 3.0 mph NE4.8 kmh NE 4.0 mph6.4 kmh 29.92 in1013.2 mb 0.00 in0.0 mm 0.00 in/hr0.0 mm/hr 0.43 in10.9 mm
10:15 AM 58.9°F14.9°C 54.7°F12.6°C 86% 2.0 mph WNW3.2 kmh WNW 4.0 mph6.4 kmh 29.91 in1012.9 mb 0.00 in0.0 mm 0.00 in/hr0.0 mm/hr 0.43 in10.9 mm
10:00 AM 58.5°F14.7°C 54.3°F12.4°C 86% 2.0 mph N3.2 kmh N 5.0 mph8.0 kmh 29.91 in1012.9 mb 0.00 in0.0 mm 0.00 in/hr0.0 mm/hr 0.43 in10.9 mm
09:45 AM 59.3°F15.2°C 54.5°F12.5°C 84% 1.0 mph NW1.6 kmh NW 3.0 mph4.8 kmh 29.91 in1012.9 mb 0.00 in0.0 mm 0.00 in/hr0.0 mm/hr 0.43 in10.9 mm
09:30 AM 60.0°F15.6°C 54.2°F12.3°C 81% Calm Calm 5.0 mph8.0 kmh 29.90 in1012.5 mb 0.00 in0.0 mm 0.00 in/hr0.0 mm/hr 0.43 in10.9 mm
09:15 AM 59.7°F15.4°C 54.5°F12.5°C 83% 2.0 mph N3.2 kmh N 4.0 mph6.4 kmh 29.90 in1012.5 mb 0.00 in0.0 mm 0.00 in/hr0.0 mm/hr 0.43 in10.9 mm
09:00 AM 58.3°F14.6°C 53.5°F11.9°C 84% Calm Calm 8.0 mph12.9 kmh 29.90 in1012.5 mb 0.20 in5.1 mm 0.00 in/hr0.0 mm/hr 0.43 in10.9 mm
08:45 AM 58.3°F14.6°C 53.8°F12.1°C 85% 5.0 mph NNW8.0 kmh NNW 6.0 mph9.7 kmh 29.89 in1012.2 mb 0.20 in5.1 mm 0.00 in/hr0.0 mm/hr 0.43 in10.9 mm
08:30 AM 58.1°F14.5°C 53.9°F12.2°C 86% 1.0 mph N1.6 kmh N 3.0 mph4.8 kmh 29.89 in1012.2 mb 0.20 in5.1 mm 0.00 in/hr0.0 mm/hr 0.43 in10.9 mm
08:15 AM 56.9°F13.8°C 53.1°F11.7°C 87% 2.0 mph NNE3.2 kmh NNE 4.0 mph6.4 kmh 29.89 in1012.2 mb 0.20 in5.1 mm 0.00 in/hr0.0 mm/hr 0.43 in10.9 mm
08:00 AM 56.8°F13.8°C 53.6°F12.0°C 89% Calm Calm 4.0 mph6.4 kmh 29.88 in1011.9 mb 0.20 in5.1 mm 0.00 in/hr0.0 mm/hr 0.43 in10.9 mm
07:45 AM 56.9°F13.8°C 54.3°F12.4°C 91% 2.0 mph N3.2 kmh N 3.0 mph4.8 kmh 29.87 in1011.5 mb 0.20 in5.1 mm 0.80 in/hr20.3 mm/hr 0.43 in10.9 mm
07:30 AM 56.9°F13.8°C 54.6°F12.6°C 92% Calm Calm 4.0 mph6.4 kmh 29.87 in1011.5 mb 0.00 in0.0 mm 0.00 in/hr0.0 mm/hr 0.23 in5.8 mm
07:15 AM 56.8°F13.8°C 54.5°F12.5°C 92% 1.0 mph NW1.6 kmh NW 2.0 mph3.2 kmh 29.86 in1011.2 mb 0.00 in0.0 mm 0.00 in/hr0.0 mm/hr 0.23 in5.8 mm
07:00 AM 56.8°F13.8°C 54.5°F12.5°C 92% 1.0 mph NNW1.6 kmh NNW 3.0 mph4.8 kmh 29.85 in1010.8 mb 0.00 in0.0 mm 0.00 in/hr0.0 mm/hr 0.23 in5.8 mm
06:45 AM 56.8°F13.8°C 54.2°F12.3°C 91% Calm Calm 3.0 mph4.8 kmh 29.85 in1010.8 mb 0.00 in0.0 mm 0.00 in/hr0.0 mm/hr 0.23 in5.8 mm
06:30 AM 56.8°F13.8°C 54.2°F12.3°C 91% 1.0 mph N1.6 kmh N 3.0 mph4.8 kmh 29.84 in1010.5 mb 0.00 in0.0 mm 0.00 in/hr0.0 mm/hr 0.23 in5.8 mm
06:15 AM 56.9°F13.8°C 54.3°F12.4°C 91% 3.0 mph N4.8 kmh N 6.0 mph9.7 kmh 29.84 in1010.5 mb 0.00 in0.0 mm 0.00 in/hr0.0 mm/hr 0.23 in5.8 mm
06:00 AM 56.9°F13.8°C 54.3°F12.4°C 91% Calm Calm 4.0 mph6.4 kmh 29.84 in1010.5 mb 0.00 in0.0 mm 0.00 in/hr0.0 mm/hr 0.23 in5.8 mm
05:45 AM 57.2°F14.0°C 54.9°F12.7°C 92% Calm Calm 4.0 mph6.4 kmh 29.83 in1010.2 mb 0.00 in0.0 mm 0.00 in/hr0.0 mm/hr 0.23 in5.8 mm
05:30 AM 57.3°F14.1°C 55.0°F12.8°C 92% 1.0 mph NW1.6 kmh NW 5.0 mph8.0 kmh 29.82 in1009.8 mb 0.00 in0.0 mm 0.00 in/hr0.0 mm/hr 0.23 in5.8 mm
05:15 AM 57.4°F14.1°C 55.1°F12.8°C 92% 1.0 mph NNE1.6 kmh NNE 4.0 mph6.4 kmh 29.81 in1009.5 mb 0.00 in0.0 mm 0.00 in/hr0.0 mm/hr 0.23 in5.8 mm
05:00 AM 57.5°F14.2°C 55.2°F12.9°C 92% 1.0 mph NNW1.6 kmh NNW 5.0 mph8.0 kmh 29.81 in1009.5 mb 0.00 in0.0 mm 0.00 in/hr0.0 mm/hr 0.23 in5.8 mm
04:45 AM 57.8°F14.3°C 55.5°F13.1°C 92% Calm Calm 3.0 mph4.8 kmh 29.80 in1009.1 mb 0.00 in0.0 mm 0.00 in/hr0.0 mm/hr 0.23 in5.8 mm
04:30 AM 58.0°F14.4°C 55.7°F13.2°C 92% 1.0 mph NNE1.6 kmh NNE 5.0 mph8.0 kmh 29.80 in1009.1 mb 0.00 in0.0 mm 0.00 in/hr0.0 mm/hr 0.23 in5.8 mm
04:15 AM 58.3°F14.6°C 56.0°F13.3°C 92% 1.0 mph NE1.6 kmh NE 4.0 mph6.4 kmh 29.79 in1008.8 mb 0.00 in0.0 mm 0.00 in/hr0.0 mm/hr 0.23 in5.8 mm
04:00 AM 58.5°F14.7°C 56.5°F13.6°C 93% Calm Calm 8.0 mph12.9 kmh 29.78 in1008.5 mb 0.00 in0.0 mm 0.00 in/hr0.0 mm/hr 0.23 in5.8 mm
03:45 AM 58.7°F14.8°C 57.0°F13.9°C 94% 1.0 mph NE1.6 kmh NE 6.0 mph9.7 kmh 29.78 in1008.5 mb 0.00 in0.0 mm 0.00 in/hr0.0 mm/hr 0.23 in5.8 mm
03:30 AM 59.1°F15.1°C 57.7°F14.3°C 95% 2.0 mph NW3.2 kmh NW 7.0 mph11.3 kmh 29.77 in1008.1 mb 0.00 in0.0 mm 0.00 in/hr0.0 mm/hr 0.23 in5.8 mm
03:15 AM 59.3°F15.2°C 58.2°F14.6°C 96% 2.0 mph NW3.2 kmh NW 5.0 mph8.0 kmh 29.76 in1007.8 mb 0.00 in0.0 mm 0.00 in/hr0.0 mm/hr 0.23 in5.8 mm
03:00 AM 59.7°F15.4°C 58.6°F14.8°C 96% 3.0 mph N4.8 kmh N 4.0 mph6.4 kmh 29.77 in1008.1 mb 0.00 in0.0 mm 0.00 in/hr0.0 mm/hr 0.23 in5.8 mm
02:45 AM 60.0°F15.6°C 59.2°F15.1°C 97% 3.0 mph N4.8 kmh N 4.0 mph6.4 kmh 29.76 in1007.8 mb 0.00 in0.0 mm 0.00 in/hr0.0 mm/hr 0.23 in5.8 mm
02:30 AM 60.3°F15.7°C 59.5°F15.3°C 97% Calm Calm 3.0 mph4.8 kmh 29.77 in1008.1 mb 0.00 in0.0 mm 0.00 in/hr0.0 mm/hr 0.23 in5.8 mm
02:15 AM 60.3°F15.7°C 59.5°F15.3°C 97% Calm Calm 1.0 mph1.6 kmh 29.76 in1007.8 mb 0.00 in0.0 mm 0.00 in/hr0.0 mm/hr 0.23 in5.8 mm
02:00 AM 60.4°F15.8°C 59.8°F15.4°C 98% Calm Calm -- 29.76 in1007.8 mb 0.02 in0.5 mm 0.00 in/hr0.0 mm/hr 0.23 in5.8 mm
01:45 AM 60.6°F15.9°C 59.8°F15.4°C 97% Calm Calm 4.0 mph6.4 kmh 29.75 in1007.5 mb 0.02 in0.5 mm 0.00 in/hr0.0 mm/hr 0.23 in5.8 mm
01:30 AM 60.9°F16.1°C 60.3°F15.7°C 98% Calm Calm 4.0 mph6.4 kmh 29.75 in1007.5 mb 0.03 in0.8 mm 0.00 in/hr0.0 mm/hr 0.23 in5.8 mm
01:15 AM 61.2°F16.2°C 60.6°F15.9°C 98% Calm Calm 4.0 mph6.4 kmh 29.74 in1007.1 mb 0.03 in0.8 mm 0.00 in/hr0.0 mm/hr 0.23 in5.8 mm
01:00 AM 61.3°F16.3°C 60.7°F15.9°C 98% 2.0 mph N3.2 kmh N 5.0 mph8.0 kmh 29.74 in1007.1 mb 0.09 in2.3 mm 0.03 in/hr0.8 mm/hr 0.23 in5.8 mm
12:45 AM 61.4°F16.3°C 60.8°F16.0°C 98% 4.0 mph W6.4 kmh W 6.0 mph9.7 kmh 29.74 in1007.1 mb 0.07 in1.8 mm 0.00 in/hr0.0 mm/hr 0.21 in5.3 mm
12:30 AM 61.4°F16.3°C 60.8°F16.0°C 98% 2.0 mph NNW3.2 kmh NNW 4.0 mph6.4 kmh 29.73 in1006.8 mb 0.21 in5.3 mm 0.00 in/hr0.0 mm/hr 0.21 in5.3 mm
12:15 AM 61.6°F16.4°C 61.0°F16.1°C 98% 1.0 mph N1.6 kmh N 4.0 mph6.4 kmh 29.73 in1006.8 mb 0.21 in5.3 mm 0.00 in/hr0.0 mm/hr 0.21 in5.3 mm
12:00 AM 61.6°F16.4°C 61.0°F16.1°C 98% Calm Calm 5.0 mph8.0 kmh 29.73 in1006.8 mb 0.21 in5.3 mm 0.00 in/hr0.0 mm/hr 0.21 in5.3 mm